Affton, Missouri
Current Conditions -  °F | °C
As of 3:53 PM on Thursday 27 Nov 2014 (Local Time) from KCPS Reporting Station
Clear Clear  
Wind Chill: 27°   Ceiling: Unl
Heat Index: 34°   Visibility: 10mi
Dew Point: 21°   Wind: 9mph
Humidity: 59%   Direction: 310°NW
Pressure: 30.46"   Gusts: NA
Location:  38.55°N, 90.33°W
Report Text: KCPS 272153Z 31008KT 10SM CLR 01/M06 A3046 RMK AO2 SLP317 T00111061
Loading
Personal Weather Stations






























Interactive Weather Map New forecast layout! Learn more

10-Day Weather Forecast

Advertisements
Track Severe Weather on mobile